createdAt,value
2023-01-04T00:01:02.085Z,102035.22
2023-01-04T00:03:31.091Z,102038.63
2023-01-04T00:05:58.883Z,102035.84
2023-01-04T00:08:26.384Z,102024.25
2023-01-04T00:10:53.804Z,102030.84
2023-01-04T00:13:21.229Z,102017.84
2023-01-04T00:15:48.844Z,102013.59
2023-01-04T00:18:17.549Z,102008.34
2023-01-04T00:20:44.978Z,102008.16
2023-01-04T00:23:12.389Z,102008.25
2023-01-04T00:25:39.792Z,101994.84
2023-01-04T00:28:07.190Z,102008.16
2023-01-04T00:30:34.777Z,101993.25
2023-01-04T00:33:02.193Z,101990.34
2023-01-04T00:35:45.437Z,101985.78
2023-01-04T00:38:13.428Z,101985.03
2023-01-04T00:40:40.840Z,101970.63
2023-01-04T00:43:08.251Z,101967.84
2023-01-04T00:45:35.719Z,101961.25
2023-01-04T00:48:03.127Z,101955.06
2023-01-04T00:50:31.828Z,101959.66
2023-01-04T00:52:59.246Z,101951.44
2023-01-04T00:55:26.661Z,101948.56
2023-01-04T00:57:54.079Z,101942.28
2023-01-04T01:00:21.490Z,101937.28
2023-01-04T01:02:49.015Z,101929.19
2023-01-04T01:05:16.603Z,101924.25
2023-01-04T01:07:45.292Z,101912.03
2023-01-04T01:10:12.712Z,101908.53
2023-01-04T01:12:40.128Z,101896.22
2023-01-04T01:15:08.308Z,101898.88
2023-01-04T01:17:36.234Z,101904.03
2023-01-04T01:20:04.339Z,101909.53
2023-01-04T01:22:31.854Z,101908.53
2023-01-04T01:25:00.536Z,101910.94
2023-01-04T01:27:28.850Z,101908.38
2023-01-04T01:29:56.244Z,101907.66
2023-01-04T01:32:23.654Z,101907.66
2023-01-04T01:34:51.079Z,101913.94
2023-01-04T01:37:18.503Z,101906.69
2023-01-04T01:39:45.921Z,101895.19
2023-01-04T01:42:20.860Z,101904.88
2023-01-04T01:45:10.968Z,101893.56
2023-01-04T01:47:40.628Z,101898.72
2023-01-04T01:50:16.437Z,101901.38
2023-01-04T01:52:43.854Z,101907.66
2023-01-04T01:55:11.633Z,101901.38
2023-01-04T01:57:40.338Z,101905.00
2023-01-04T02:00:09.768Z,101903.38
2023-01-04T02:02:45.411Z,101899.72
2023-01-04T02:05:13.026Z,101892.59
2023-01-04T02:07:40.424Z,101889.00
2023-01-04T02:10:08.558Z,101894.31
2023-01-04T02:12:35.968Z,101888.16
2023-01-04T02:15:05.116Z,101881.75
2023-01-04T02:17:37.050Z,101872.25
2023-01-04T02:20:12.012Z,101875.69
2023-01-04T02:22:54.682Z,101856.25
2023-01-04T02:25:38.315Z,101846.59
2023-01-04T02:28:06.963Z,101838.59
2023-01-04T02:30:57.375Z,101827.16
2023-01-04T02:33:29.879Z,101816.41
2023-01-04T02:36:00.885Z,101809.38
2023-01-04T02:38:29.592Z,101796.69
2023-01-04T02:41:00.563Z,101797.75
2023-01-04T02:43:48.849Z,101797.66
2023-01-04T02:46:18.991Z,101789.88
2023-01-04T02:49:03.891Z,101785.53
2023-01-04T02:51:32.289Z,101778.25
2023-01-04T02:54:01.017Z,101764.31
2023-01-04T02:56:36.236Z,101759.00
2023-01-04T02:59:10.993Z,101749.19
2023-01-04T03:02:01.521Z,101756.94
2023-01-04T03:04:53.135Z,101752.81
2023-01-04T03:07:24.961Z,101752.81
2023-01-04T03:09:54.348Z,101758.16
2023-01-04T03:12:32.255Z,101753.78
2023-01-04T03:15:02.189Z,101739.72
2023-01-04T03:17:34.359Z,101733.41
2023-01-04T03:20:01.866Z,101730.03
2023-01-04T03:22:51.043Z,101731.72
2023-01-04T03:25:37.356Z,101722.75
2023-01-04T03:28:22.710Z,101725.31
2023-01-04T03:31:11.071Z,101712.34
2023-01-04T03:33:57.660Z,101708.81
2023-01-04T03:36:30.045Z,101701.44
2023-01-04T03:39:16.880Z,101694.44
2023-01-04T03:42:03.190Z,101688.38
2023-01-04T03:44:49.662Z,101682.91
2023-01-04T03:47:35.883Z,101675.06
2023-01-04T03:50:07.266Z,101664.41
2023-01-04T03:52:34.679Z,101669.72
2023-01-04T03:55:02.128Z,101661.75
2023-01-04T03:57:29.587Z,101653.75
2023-01-04T03:59:58.968Z,101650.09
2023-01-04T04:02:31.175Z,101647.44
2023-01-04T04:05:15.903Z,101650.72
2023-01-04T04:08:02.329Z,101635.09
2023-01-04T04:10:29.778Z,101627.22
2023-01-04T04:12:57.202Z,101613.91
2023-01-04T04:15:24.631Z,101629.91
2023-01-04T04:17:52.052Z,101626.25
2023-01-04T04:20:19.480Z,101623.47
2023-01-04T04:22:48.174Z,101613.91
2023-01-04T04:25:15.619Z,101604.09
2023-01-04T04:27:43.031Z,101604.09
2023-01-04T04:30:11.006Z,101594.41
2023-01-04T04:32:38.408Z,101589.06
2023-01-04T04:35:06.419Z,101583.63
2023-01-04T04:37:34.608Z,101578.41
2023-01-04T04:40:03.764Z,101571.28
2023-01-04T04:42:30.250Z,101572.13
2023-01-04T04:44:57.658Z,101557.84
2023-01-04T04:47:25.069Z,101554.44
2023-01-04T04:49:52.555Z,101551.88
2023-01-04T04:52:19.946Z,101545.59
2023-01-04T04:54:47.356Z,101552.03
2023-01-04T04:57:16.055Z,101542.94
2023-01-04T04:59:43.476Z,101530.47
2023-01-04T05:02:11.069Z,101511.81
2023-01-04T05:04:38.673Z,101506.59
2023-01-04T05:07:12.039Z,101500.44
2023-01-04T05:09:39.938Z,101498.78
2023-01-04T05:12:25.005Z,101484.34
2023-01-04T05:14:53.698Z,101475.41
2023-01-04T05:17:21.114Z,101469.97
2023-01-04T05:19:48.523Z,101472.72
2023-01-04T05:22:15.921Z,101466.66
2023-01-04T05:24:43.322Z,101455.16
2023-01-04T05:27:10.777Z,101437.59
2023-01-04T05:29:55.974Z,101438.19
2023-01-04T05:32:24.755Z,101435.31
2023-01-04T05:34:52.187Z,101422.50
2023-01-04T05:37:19.595Z,101412.06
2023-01-04T05:39:47.009Z,101415.47
2023-01-04T05:42:26.462Z,101403.09
2023-01-04T05:44:54.107Z,101387.09
2023-01-04T05:47:21.516Z,101382.53
2023-01-04T05:49:50.243Z,101378.28
2023-01-04T05:52:17.741Z,101368.22
2023-01-04T05:54:45.199Z,101371.59
2023-01-04T05:57:12.638Z,101367.03
2023-01-04T05:59:42.168Z,101360.81
2023-01-04T06:02:14.633Z,101360.94
2023-01-04T06:04:42.098Z,101352.13
2023-01-04T06:07:10.864Z,101342.31
2023-01-04T06:09:38.279Z,101334.44
2023-01-04T06:12:05.956Z,101340.63
2023-01-04T06:14:33.416Z,101342.19
2023-01-04T06:17:00.920Z,101333.34
2023-01-04T06:19:28.408Z,101328.75
2023-01-04T06:21:55.845Z,101315.53
2023-01-04T06:24:24.554Z,101317.25
2023-01-04T06:26:51.970Z,101318.09
2023-01-04T06:29:19.401Z,101319.78
2023-01-04T06:31:46.801Z,101306.72
2023-01-04T06:34:14.672Z,101310.84
2023-01-04T06:36:42.081Z,101299.44
2023-01-04T06:39:09.647Z,101285.41
2023-01-04T06:41:38.335Z,101287.09
2023-01-04T06:44:05.974Z,101285.06
2023-01-04T06:46:33.424Z,101276.19
2023-01-04T06:49:00.868Z,101255.13
2023-01-04T06:51:28.319Z,101262.13
2023-01-04T06:53:55.761Z,101267.59
2023-01-04T06:56:23.159Z,101252.47
2023-01-04T06:58:51.878Z,101251.47
2023-01-04T07:01:19.383Z,101241.81
2023-01-04T07:03:46.865Z,101238.16
2023-01-04T07:06:14.281Z,101237.19
2023-01-04T07:08:41.709Z,101240.00
2023-01-04T07:11:09.169Z,101231.88
2023-01-04T07:13:36.597Z,101230.91
2023-01-04T07:16:05.652Z,101228.25
2023-01-04T07:18:33.141Z,101214.81
2023-01-04T07:21:00.615Z,101210.47
2023-01-04T07:23:28.028Z,101199.91
2023-01-04T07:25:55.435Z,101196.28
2023-01-04T07:28:36.899Z,101201.00
2023-01-04T07:31:06.970Z,101200.41
2023-01-04T07:33:34.484Z,101195.19
2023-01-04T07:36:05.524Z,101195.06
2023-01-04T07:38:33.813Z,101186.38
2023-01-04T07:41:01.250Z,101183.72
2023-01-04T07:43:28.916Z,101183.00
2023-01-04T07:45:56.409Z,101180.34
2023-01-04T07:48:25.209Z,101179.34
2023-01-04T07:50:52.612Z,101172.22
2023-01-04T07:53:20.040Z,101167.97
2023-01-04T07:55:47.442Z,101165.31
2023-01-04T07:58:14.875Z,101162.66
2023-01-04T08:00:42.282Z,101154.66
2023-01-04T08:03:09.787Z,101151.75
2023-01-04T08:05:38.551Z,101149.59
2023-01-04T08:08:06.258Z,101136.09
2023-01-04T08:10:33.670Z,101133.81
2023-01-04T08:13:01.132Z,101126.19
2023-01-04T08:15:28.598Z,101119.19
2023-01-04T08:17:56.751Z,101108.78
2023-01-04T08:20:24.697Z,101108.78
2023-01-04T08:22:53.450Z,101098.13
2023-01-04T08:25:20.872Z,101093.78
2023-01-04T08:27:48.631Z,101093.66
2023-01-04T08:30:16.055Z,101091.13
2023-01-04T08:32:43.578Z,101090.88
2023-01-04T08:35:11.017Z,101074.88
2023-01-04T08:37:38.477Z,101084.41
2023-01-04T08:40:08.872Z,101079.25
2023-01-04T08:42:36.266Z,101086.25
2023-01-04T08:45:03.682Z,101078.25
2023-01-04T08:47:31.313Z,101073.06
2023-01-04T08:49:58.827Z,101076.59
2023-01-04T08:52:26.258Z,101063.28
2023-01-04T08:54:54.067Z,101060.63
2023-01-04T08:57:22.806Z,101057.22
2023-01-04T08:59:50.217Z,101049.97
2023-01-04T09:02:21.673Z,101050.09
2023-01-04T09:04:49.521Z,101061.78
2023-01-04T09:07:17.235Z,101055.66
2023-01-04T09:09:44.713Z,101055.41
2023-01-04T09:12:12.751Z,101049.13
2023-01-04T09:14:41.451Z,101054.44
2023-01-04T09:17:08.893Z,101051.78
2023-01-04T09:19:36.331Z,101051.03
2023-01-04T09:22:03.817Z,101052.03
2023-01-04T09:24:33.213Z,101059.16
2023-01-04T09:27:00.664Z,101050.09
2023-01-04T09:29:28.223Z,101050.78
2023-01-04T09:31:57.024Z,101040.53
2023-01-04T09:34:24.499Z,101037.16
2023-01-04T09:36:52.231Z,101029.56
2023-01-04T09:39:23.992Z,101018.91
2023-01-04T09:41:56.312Z,101011.91
2023-01-04T09:44:54.433Z,100996.16
2023-01-04T09:47:19.314Z,101005.88
2023-01-04T09:49:47.702Z,100995.34
2023-01-04T09:52:16.550Z,100998.00
2023-01-04T09:54:45.502Z,100968.72
2023-01-04T09:57:18.145Z,100986.53
2023-01-04T09:59:45.589Z,100978.53
2023-01-04T10:02:13.753Z,100969.81
2023-01-04T10:04:45.732Z,100964.22
2023-01-04T10:07:18.131Z,100968.84
2023-01-04T10:09:45.539Z,100954.56
2023-01-04T10:12:21.987Z,100961.69
2023-01-04T10:14:55.884Z,100943.19
2023-01-04T10:18:02.734Z,100941.25
2023-01-04T10:21:23.586Z,100935.06
2023-01-04T10:23:41.638Z,100932.53
2023-01-04T10:26:11.518Z,100918.50
2023-01-04T10:28:46.274Z,100908.69
2023-01-04T10:31:38.498Z,100913.19
2023-01-04T10:34:05.206Z,100912.09
2023-01-04T10:36:33.983Z,100893.59
2023-01-04T10:39:02.883Z,100906.03
2023-01-04T10:41:32.793Z,100892.00
2023-01-04T10:44:11.991Z,100884.34
2023-01-04T10:46:44.376Z,100871.59
2023-01-04T10:49:13.167Z,100878.50
2023-01-04T10:51:45.459Z,100866.84
2023-01-04T10:54:17.289Z,100865.75
2023-01-04T10:56:46.491Z,100864.63
2023-01-04T10:59:16.306Z,100857.63
2023-01-04T11:01:46.869Z,100847.09
2023-01-04T11:04:16.223Z,100843.75
2023-01-04T11:06:47.311Z,100834.19
2023-01-04T11:09:21.122Z,100823.53
2023-01-04T11:11:52.101Z,100815.28
2023-01-04T11:14:19.551Z,100810.94
2023-01-04T11:16:48.076Z,100809.00
2023-01-04T11:19:15.735Z,100809.25
2023-01-04T11:21:47.645Z,100809.81
2023-01-04T11:24:31.400Z,100796.38
2023-01-04T11:27:01.012Z,100791.06
2023-01-04T11:29:31.635Z,100793.00
2023-01-04T11:32:02.279Z,100782.63
2023-01-04T11:34:49.782Z,100771.41
2023-01-04T11:37:30.212Z,100772.94
2023-01-04T11:40:21.209Z,100765.22
2023-01-04T11:42:49.369Z,100775.88
2023-01-04T11:45:22.174Z,100766.91
2023-01-04T11:47:51.095Z,100753.47
2023-01-04T11:50:34.989Z,100764.97
2023-01-04T11:53:03.836Z,100751.78
2023-01-04T11:55:31.441Z,100751.22
2023-01-04T11:58:06.567Z,100742.53
2023-01-04T12:00:34.123Z,100741.41
2023-01-04T12:03:11.910Z,100728.50
2023-01-04T12:05:39.419Z,100731.28
2023-01-04T12:08:08.281Z,100714.63
2023-01-04T12:10:35.725Z,100715.56
2023-01-04T12:13:03.290Z,100713.78
2023-01-04T12:15:35.646Z,100708.59
2023-01-04T12:18:04.447Z,100697.94
2023-01-04T12:20:31.888Z,100699.59
2023-01-04T12:22:59.348Z,100704.94
2023-01-04T12:25:34.732Z,100687.28
2023-01-04T12:28:02.173Z,100689.81
2023-01-04T12:30:41.770Z,100696.31
2023-01-04T12:33:40.383Z,100688.44
2023-01-04T12:36:08.739Z,100676.13
2023-01-04T12:38:57.747Z,100684.25
2023-01-04T12:42:17.753Z,100680.44
2023-01-04T12:45:00.585Z,100681.44
2023-01-04T12:47:57.444Z,100670.78
2023-01-04T12:50:27.448Z,100656.34
2023-01-04T12:53:19.616Z,100666.31
2023-01-04T12:55:53.675Z,100657.03
2023-01-04T12:59:23.773Z,100659.00
2023-01-04T13:01:31.982Z,100650.88
2023-01-04T13:04:04.991Z,100638.84
2023-01-04T13:06:35.277Z,100624.38
2023-01-04T13:09:02.802Z,100633.38
2023-01-04T13:12:02.022Z,100628.06
2023-01-04T13:14:31.792Z,100631.41
2023-01-04T13:17:09.214Z,100622.59
2023-01-04T13:19:38.901Z,100619.19
2023-01-04T13:22:11.393Z,100616.53
2023-01-04T13:24:38.981Z,100622.00
2023-01-04T13:27:07.062Z,100615.44
2023-01-04T13:29:35.000Z,100617.53
2023-01-04T13:32:02.954Z,100619.09
2023-01-04T13:34:32.821Z,100607.72
2023-01-04T13:37:05.816Z,100604.34
2023-01-04T13:39:33.224Z,100601.97
2023-01-04T13:42:00.645Z,100597.38
2023-01-04T13:45:18.399Z,100583.06
2023-01-04T13:47:38.806Z,100579.56
2023-01-04T13:50:08.526Z,100597.50
2023-01-04T13:52:53.078Z,100579.44
2023-01-04T13:55:24.701Z,100570.56
2023-01-04T13:57:56.180Z,100582.38
2023-01-04T14:00:23.685Z,100584.88
2023-01-04T14:03:04.209Z,100564.56
2023-01-04T14:05:33.052Z,100552.25
2023-01-04T14:08:00.884Z,100581.69
2023-01-04T14:10:28.429Z,100568.22
2023-01-04T14:12:55.945Z,100569.06
2023-01-04T14:15:24.415Z,100575.22
2023-01-04T14:17:52.404Z,100572.69
2023-01-04T14:20:34.387Z,100557.56
2023-01-04T14:23:01.886Z,100555.06
2023-01-04T14:25:56.113Z,100553.09
2023-01-04T14:28:41.631Z,100563.88
2023-01-04T14:31:19.254Z,100564.56
2023-01-04T14:33:47.353Z,100551.13
2023-01-04T14:36:19.195Z,100544.81
2023-01-04T14:38:48.314Z,100550.97
2023-01-04T14:41:20.302Z,100540.47
2023-01-04T14:43:48.789Z,100540.63
2023-01-04T14:46:16.304Z,100541.06
2023-01-04T14:48:43.954Z,100524.78
2023-01-04T14:51:12.028Z,100528.16
2023-01-04T14:53:40.743Z,100527.44
2023-01-04T14:56:08.964Z,100531.78
2023-01-04T14:58:36.641Z,100529.81
2023-01-04T15:01:04.066Z,100529.13
2023-01-04T15:03:31.689Z,100520.44
2023-01-04T15:05:59.506Z,100514.13
2023-01-04T15:08:26.953Z,100509.81
2023-01-04T15:11:00.007Z,100515.13
2023-01-04T15:13:36.746Z,100509.81
2023-01-04T15:16:07.289Z,100509.09
2023-01-04T15:18:34.801Z,100504.75
2023-01-04T15:21:03.183Z,100483.59
2023-01-04T15:23:30.607Z,100492.56
2023-01-04T15:26:01.670Z,100483.59
2023-01-04T15:28:29.121Z,100497.75
2023-01-04T15:30:56.592Z,100487.53
2023-01-04T15:33:27.522Z,100485.56
2023-01-04T15:35:59.298Z,100494.38
2023-01-04T15:38:26.780Z,100483.59
2023-01-04T15:41:01.875Z,100494.38
2023-01-04T15:43:34.135Z,100490.06
2023-01-04T15:46:04.773Z,100474.38
2023-01-04T15:48:32.257Z,100480.53
2023-01-04T15:51:02.997Z,100470.44
2023-01-04T15:53:30.489Z,100469.59
2023-01-04T15:56:06.952Z,100471.44
2023-01-04T15:58:34.431Z,100457.25
2023-01-04T16:01:06.294Z,100452.38
2023-01-04T16:03:35.150Z,100443.41
2023-01-04T16:06:05.768Z,100443.13
2023-01-04T16:08:33.187Z,100443.25
2023-01-04T16:11:00.598Z,100431.78
2023-01-04T16:13:29.329Z,100438.78
2023-01-04T16:15:57.846Z,100447.47
2023-01-04T16:18:28.936Z,100430.66
2023-01-04T16:20:59.731Z,100423.53
2023-01-04T16:23:27.223Z,100414.41
2023-01-04T16:26:03.960Z,100416.63
2023-01-04T16:28:32.636Z,100408.94
2023-01-04T16:31:00.490Z,100400.69
2023-01-04T16:33:28.025Z,100410.34
2023-01-04T16:36:02.635Z,100410.50
2023-01-04T16:38:30.059Z,100403.47
2023-01-04T16:40:58.670Z,100406.28
2023-01-04T16:43:26.143Z,100388.38
2023-01-04T16:46:14.375Z,100400.97
2023-01-04T16:48:41.832Z,100386.53
2023-01-04T16:51:09.397Z,100384.44
2023-01-04T16:53:36.788Z,100374.81
2023-01-04T16:56:04.475Z,100371.41
2023-01-04T16:58:31.890Z,100370.03
2023-01-04T17:01:08.497Z,100363.84
2023-01-04T17:03:36.214Z,100352.50
2023-01-04T17:06:06.755Z,100348.88
2023-01-04T17:08:34.160Z,100341.88
2023-01-04T17:11:42.328Z,100345.53
2023-01-04T17:13:53.158Z,100337.41
2023-01-04T17:16:22.148Z,100340.22
2023-01-04T17:18:49.879Z,100334.56
2023-01-04T17:21:33.886Z,100339.22
2023-01-04T17:24:02.303Z,100343.00
2023-01-04T17:26:30.767Z,100344.94
2023-01-04T17:28:58.737Z,100330.06
2023-01-04T17:31:28.746Z,100333.47
2023-01-04T17:33:56.180Z,100337.41
2023-01-04T17:36:23.605Z,100334.03
2023-01-04T17:38:51.118Z,100314.56
2023-01-04T17:41:19.409Z,100307.56
2023-01-04T17:43:47.831Z,100313.06
2023-01-04T17:46:22.410Z,100309.25
2023-01-04T17:49:17.794Z,100300.72
2023-01-04T17:51:39.806Z,100296.09
2023-01-04T17:54:08.207Z,100294.13
2023-01-04T17:56:37.077Z,100296.78
2023-01-04T17:59:06.602Z,100296.78
2023-01-04T18:01:34.190Z,100279.44
2023-01-04T18:04:03.184Z,100287.00
2023-01-04T18:06:31.768Z,100291.59
2023-01-04T18:08:59.465Z,100280.41
2023-01-04T18:11:26.923Z,100296.22
2023-01-04T18:13:54.354Z,100288.94
2023-01-04T18:16:25.103Z,100282.78
2023-01-04T18:18:52.995Z,100294.25
2023-01-04T18:21:30.068Z,100293.28
2023-01-04T18:29:33.314Z,100292.75
2023-01-04T18:32:00.802Z,100283.94
2023-01-04T18:34:28.303Z,100292.88
2023-01-04T18:36:56.998Z,100279.41
2023-01-04T18:39:24.559Z,100268.22
2023-01-04T18:41:51.977Z,100251.69
2023-01-04T18:44:38.735Z,100266.00
2023-01-04T18:47:08.821Z,100269.91
2023-01-04T18:49:36.225Z,100268.25
2023-01-04T18:52:05.277Z,100269.09
2023-01-04T18:54:32.679Z,100264.91
2023-01-04T18:57:01.262Z,100253.94
2023-01-04T18:59:28.979Z,100251.28
2023-01-04T19:02:00.726Z,100255.78
2023-01-04T19:04:28.895Z,100252.00
2023-01-04T19:06:56.304Z,100246.84
2023-01-04T19:09:25.020Z,100242.22
2023-01-04T19:11:52.444Z,100239.66
2023-01-04T19:14:19.839Z,100228.31
2023-01-04T19:16:47.307Z,100235.34
2023-01-04T19:19:14.792Z,100233.94
2023-01-04T19:21:42.205Z,100240.66
2023-01-04T19:24:09.846Z,100244.28
2023-01-04T19:26:38.568Z,100233.50
2023-01-04T19:29:07.315Z,100239.94
2023-01-04T19:31:35.715Z,100225.28
2023-01-04T19:34:03.308Z,100224.19
2023-01-04T19:36:30.719Z,100229.81
2023-01-04T19:38:58.321Z,100220.59
2023-01-04T19:41:33.473Z,100221.44
2023-01-04T19:44:03.446Z,100221.59
2023-01-04T19:46:31.638Z,100217.81
2023-01-04T19:48:59.746Z,100217.28
2023-01-04T19:51:28.336Z,100224.69
2023-01-04T19:53:55.802Z,100215.56
2023-01-04T19:56:23.231Z,100211.19
2023-01-04T19:58:50.662Z,100218.59
2023-01-04T20:01:20.595Z,100204.75
2023-01-04T20:03:48.269Z,100215.25
2023-01-04T20:06:15.792Z,100209.00
2023-01-04T20:08:43.497Z,100198.41
2023-01-04T20:11:11.074Z,100209.34
2023-01-04T20:13:38.772Z,100199.84
2023-01-04T20:16:06.751Z,100214.81
2023-01-04T20:18:35.635Z,100186.69
2023-01-04T20:21:03.261Z,100193.72
2023-01-04T20:23:30.670Z,100185.88
2023-01-04T20:25:58.070Z,100185.88
2023-01-04T20:28:25.569Z,100184.88
2023-01-04T20:31:01.301Z,100173.25
2023-01-04T20:33:28.797Z,100169.75
2023-01-04T20:35:57.480Z,100184.31
2023-01-04T20:38:24.898Z,100183.22
2023-01-04T20:40:52.294Z,100182.19
2023-01-04T20:43:34.476Z,100193.00
2023-01-04T20:46:02.217Z,100172.84
2023-01-04T20:48:29.672Z,100173.63
2023-01-04T20:50:58.356Z,100169.75
2023-01-04T20:53:25.753Z,100183.75
2023-01-04T20:55:53.157Z,100179.81
2023-01-04T20:58:20.550Z,100172.03
2023-01-04T21:00:47.979Z,100159.50
2023-01-04T21:03:15.705Z,100179.41
2023-01-04T21:05:44.251Z,100162.31
2023-01-04T21:08:13.274Z,100182.19
2023-01-04T21:10:41.618Z,100190.19
2023-01-04T21:13:09.029Z,100181.66
2023-01-04T21:15:36.793Z,100176.34
2023-01-04T21:18:04.365Z,100175.53
2023-01-04T21:20:31.778Z,100176.34
2023-01-04T21:22:59.221Z,100162.22
2023-01-04T21:25:27.973Z,100165.84
2023-01-04T21:27:55.426Z,100170.19
2023-01-04T21:30:22.821Z,100164.19
2023-01-04T21:32:50.204Z,100158.72
2023-01-04T21:35:17.666Z,100162.34
2023-01-04T21:37:45.091Z,100150.03
2023-01-04T21:40:13.125Z,100137.16
2023-01-04T21:42:41.842Z,100139.19
2023-01-04T21:45:09.790Z,100140.56
2023-01-04T21:47:37.760Z,100153.72
2023-01-04T21:50:05.454Z,100154.03
2023-01-04T21:52:32.890Z,100158.53
2023-01-04T21:55:00.342Z,100165.50
2023-01-04T21:57:27.753Z,100174.16
2023-01-04T21:59:56.465Z,100154.03
2023-01-04T22:02:24.008Z,100168.31
2023-01-04T22:04:51.542Z,100164.69
2023-01-04T22:07:18.985Z,100176.84
2023-01-04T22:09:46.479Z,100167.88
2023-01-04T22:12:13.894Z,100167.19
2023-01-04T22:14:41.332Z,100154.03
2023-01-04T22:17:10.063Z,100147.88
2023-01-04T22:19:37.473Z,100127.94
2023-01-04T22:22:04.887Z,100142.38
2023-01-04T22:24:37.526Z,100128.38
2023-01-04T22:27:05.571Z,100137.06
2023-01-04T22:29:33.020Z,100152.34
2023-01-04T22:32:00.534Z,100140.78
2023-01-04T22:34:29.454Z,100123.59
2023-01-04T22:36:56.864Z,100123.06
2023-01-04T22:39:24.277Z,100128.41
2023-01-04T22:41:51.700Z,100136.22
2023-01-04T22:44:19.121Z,100135.38
2023-01-04T22:46:46.558Z,100140.00
2023-01-04T22:49:14.015Z,100149.16
2023-01-04T22:51:42.707Z,100146.34
2023-01-04T22:54:10.166Z,100151.97
2023-01-04T22:56:37.604Z,100158.25
2023-01-04T22:59:05.023Z,100154.47
2023-01-04T23:01:33.079Z,100158.94
2023-01-04T23:04:01.214Z,100157.00
2023-01-04T23:06:29.178Z,100155.31
2023-01-04T23:08:58.841Z,100150.28
2023-01-04T23:11:26.519Z,100157.81
2023-01-04T23:13:53.956Z,100149.06
2023-01-04T23:16:26.202Z,100157.66
2023-01-04T23:18:57.229Z,100134.56
2023-01-04T23:21:24.643Z,100142.84
2023-01-04T23:23:52.161Z,100127.31
2023-01-04T23:26:22.826Z,100134.09
2023-01-04T23:28:50.547Z,100122.78
2023-01-04T23:31:19.849Z,100126.50
2023-01-04T23:33:47.634Z,100123.84
2023-01-04T23:36:16.575Z,100131.81
2023-01-04T23:38:44.173Z,100145.81
2023-01-04T23:41:11.916Z,100120.16
2023-01-04T23:43:40.661Z,100118.22
2023-01-04T23:46:08.590Z,100128.88
2023-01-04T23:48:36.052Z,100127.84
2023-01-04T23:51:03.507Z,100135.00
2023-01-04T23:53:30.984Z,100134.00
2023-01-04T23:55:59.230Z,100130.66
2023-01-04T23:58:27.381Z,100128.00
